New Auburn, Wisconsin
Current Conditions -  °F | °C
As of 12:35 AM on Wednesday 26 Nov 2014 (Local Time) from KY23 Reporting Station
Overcast Overcast  
Wind Chill: 22°   Ceiling: 5500
Heat Index: 22°   Visibility: 10mi
Dew Point: 17°   Wind: 3mph
Humidity: 82%   Direction: 120°ESE
Pressure: 30.07"   Gusts: NA
Location:  45.2°N, 91.56°W
Report Text: KY23 260635Z AUTO 12003KT 10SM BKN055 OVC070 M06/M08 A3007 RMK AO2 T10581085
Loading
Personal Weather Stations






























Interactive Weather Map New forecast layout! Learn more

10-Day Weather Forecast

Advertisements
Track Severe Weather on mobile